sensor_id;sensor_type;location;lat;lon;timestamp;P1;durP1;ratioP1;P2;durP2;ratioP2
51292;SDS011;37377;45.186;9.778;2023-04-01T00:00:02;31.15;;;17.73;;
51292;SDS011;37377;45.186;9.778;2023-04-01T00:02:37;25.55;;;16.60;;
51292;SDS011;37377;45.186;9.778;2023-04-01T00:05:04;26.17;;;16.77;;
51292;SDS011;37377;45.186;9.778;2023-04-01T00:07:32;24.38;;;16.50;;
51292;SDS011;37377;45.186;9.778;2023-04-01T00:09:59;27.23;;;16.25;;
51292;SDS011;37377;45.186;9.778;2023-04-01T00:12:26;25.60;;;14.45;;
51292;SDS011;37377;45.186;9.778;2023-04-01T00:14:53;29.95;;;15.60;;
51292;SDS011;37377;45.186;9.778;2023-04-01T00:17:19;24.40;;;15.43;;
51292;SDS011;37377;45.186;9.778;2023-04-01T00:19:46;20.77;;;14.27;;
51292;SDS011;37377;45.186;9.778;2023-04-01T00:22:14;18.10;;;13.40;;
51292;SDS011;37377;45.186;9.778;2023-04-01T00:24:41;19.88;;;14.30;;
51292;SDS011;37377;45.186;9.778;2023-04-01T00:27:07;31.75;;;14.18;;
51292;SDS011;37377;45.186;9.778;2023-04-01T00:29:34;20.80;;;13.13;;
51292;SDS011;37377;45.186;9.778;2023-04-01T00:32:02;19.88;;;12.05;;
51292;SDS011;37377;45.186;9.778;2023-04-01T00:34:29;21.73;;;12.02;;
51292;SDS011;37377;45.186;9.778;2023-04-01T00:36:55;21.65;;;12.63;;
51292;SDS011;37377;45.186;9.778;2023-04-01T00:39:22;21.25;;;12.13;;
51292;SDS011;37377;45.186;9.778;2023-04-01T00:41:49;19.70;;;11.73;;
51292;SDS011;37377;45.186;9.778;2023-04-01T00:46:42;18.60;;;11.68;;
51292;SDS011;37377;45.186;9.778;2023-04-01T00:49:09;20.58;;;11.98;;
51292;SDS011;37377;45.186;9.778;2023-04-01T00:51:36;21.13;;;11.57;;
51292;SDS011;37377;45.186;9.778;2023-04-01T00:54:04;15.10;;;11.43;;
51292;SDS011;37377;45.186;9.778;2023-04-01T00:56:32;27.67;;;11.90;;
51292;SDS011;37377;45.186;9.778;2023-04-01T00:59:04;20.60;;;11.95;;
51292;SDS011;37377;45.186;9.778;2023-04-01T01:01:35;25.17;;;12.07;;
51292;SDS011;37377;45.186;9.778;2023-04-01T01:04:02;16.52;;;10.82;;
51292;SDS011;37377;45.186;9.778;2023-04-01T01:11:26;23.60;;;12.10;;
51292;SDS011;37377;45.186;9.778;2023-04-01T01:14:15;21.10;;;12.57;;
51292;SDS011;37377;45.186;9.778;2023-04-01T01:16:44;28.58;;;16.27;;
51292;SDS011;37377;45.186;9.778;2023-04-01T01:21:50;30.50;;;20.30;;
51292;SDS011;37377;45.186;9.778;2023-04-01T01:26:58;38.40;;;22.47;;
51292;SDS011;37377;45.186;9.778;2023-04-01T01:37:10;30.02;;;22.48;;
51292;SDS011;37377;45.186;9.778;2023-04-01T01:39:38;33.72;;;23.63;;
51292;SDS011;37377;45.186;9.778;2023-04-01T01:42:06;31.35;;;25.20;;
51292;SDS011;37377;45.186;9.778;2023-04-01T01:44:34;34.22;;;27.02;;
51292;SDS011;37377;45.186;9.778;2023-04-01T01:47:02;33.15;;;26.20;;
51292;SDS011;37377;45.186;9.778;2023-04-01T01:49:29;41.00;;;29.55;;
51292;SDS011;37377;45.186;9.778;2023-04-01T01:51:58;44.15;;;32.63;;
51292;SDS011;37377;45.186;9.778;2023-04-01T01:54:24;53.15;;;33.40;;
51292;SDS011;37377;45.186;9.778;2023-04-01T01:56:53;43.00;;;31.48;;
51292;SDS011;37377;45.186;9.778;2023-04-01T01:59:23;44.47;;;32.83;;
51292;SDS011;37377;45.186;9.778;2023-04-01T02:01:52;46.78;;;34.60;;
51292;SDS011;37377;45.186;9.778;2023-04-01T02:04:22;43.95;;;31.88;;
51292;SDS011;37377;45.186;9.778;2023-04-01T02:06:56;48.42;;;34.45;;
51292;SDS011;37377;45.186;9.778;2023-04-01T02:09:24;39.70;;;31.10;;
51292;SDS011;37377;45.186;9.778;2023-04-01T02:11:53;37.97;;;30.15;;
51292;SDS011;37377;45.186;9.778;2023-04-01T02:19:50;37.95;;;29.80;;
51292;SDS011;37377;45.186;9.778;2023-04-01T02:22:20;36.15;;;28.95;;
51292;SDS011;37377;45.186;9.778;2023-04-01T02:24:48;42.65;;;30.20;;
51292;SDS011;37377;45.186;9.778;2023-04-01T02:27:15;40.42;;;30.73;;
51292;SDS011;37377;45.186;9.778;2023-04-01T02:29:42;38.50;;;29.92;;
51292;SDS011;37377;45.186;9.778;2023-04-01T02:32:09;40.88;;;29.98;;
51292;SDS011;37377;45.186;9.778;2023-04-01T02:34:36;39.58;;;31.83;;
51292;SDS011;37377;45.186;9.778;2023-04-01T02:37:03;38.38;;;30.65;;
51292;SDS011;37377;45.186;9.778;2023-04-01T02:39:31;44.30;;;33.97;;
51292;SDS011;37377;45.186;9.778;2023-04-01T02:41:57;40.25;;;33.00;;
51292;SDS011;37377;45.186;9.778;2023-04-01T02:44:24;45.35;;;33.33;;
51292;SDS011;37377;45.186;9.778;2023-04-01T02:46:51;39.08;;;33.40;;
51292;SDS011;37377;45.186;9.778;2023-04-01T02:49:19;45.95;;;34.75;;
51292;SDS011;37377;45.186;9.778;2023-04-01T02:51:46;45.80;;;35.63;;
51292;SDS011;37377;45.186;9.778;2023-04-01T02:54:13;49.55;;;34.22;;
51292;SDS011;37377;45.186;9.778;2023-04-01T02:56:40;42.33;;;33.53;;
51292;SDS011;37377;45.186;9.778;2023-04-01T02:59:07;45.78;;;33.50;;
51292;SDS011;37377;45.186;9.778;2023-04-01T03:01:34;50.15;;;34.55;;
51292;SDS011;37377;45.186;9.778;2023-04-01T03:04:01;39.28;;;32.65;;
51292;SDS011;37377;45.186;9.778;2023-04-01T03:06:28;44.65;;;34.25;;
51292;SDS011;37377;45.186;9.778;2023-04-01T03:08:54;47.67;;;31.73;;
51292;SDS011;37377;45.186;9.778;2023-04-01T03:11:21;39.40;;;31.05;;
51292;SDS011;37377;45.186;9.778;2023-04-01T03:13:48;39.17;;;30.75;;
51292;SDS011;37377;45.186;9.778;2023-04-01T03:16:15;39.97;;;29.77;;
51292;SDS011;37377;45.186;9.778;2023-04-01T03:18:42;40.10;;;30.55;;
51292;SDS011;37377;45.186;9.778;2023-04-01T03:21:17;32.85;;;27.65;;
51292;SDS011;37377;45.186;9.778;2023-04-01T03:23:44;42.65;;;29.13;;
51292;SDS011;37377;45.186;9.778;2023-04-01T03:26:11;38.33;;;28.67;;
51292;SDS011;37377;45.186;9.778;2023-04-01T03:28:38;37.03;;;27.60;;
51292;SDS011;37377;45.186;9.778;2023-04-01T03:31:05;38.22;;;27.98;;
51292;SDS011;37377;45.186;9.778;2023-04-01T03:33:40;39.08;;;26.55;;
51292;SDS011;37377;45.186;9.778;2023-04-01T03:36:07;36.55;;;26.35;;
51292;SDS011;37377;45.186;9.778;2023-04-01T03:38:34;37.85;;;26.58;;
51292;SDS011;37377;45.186;9.778;2023-04-01T03:41:01;31.65;;;26.52;;
51292;SDS011;37377;45.186;9.778;2023-04-01T03:43:28;34.95;;;27.00;;
51292;SDS011;37377;45.186;9.778;2023-04-01T03:45:55;34.50;;;26.23;;
51292;SDS011;37377;45.186;9.778;2023-04-01T03:48:24;35.45;;;27.20;;
51292;SDS011;37377;45.186;9.778;2023-04-01T03:50:52;41.75;;;26.58;;
51292;SDS011;37377;45.186;9.778;2023-04-01T03:53:19;29.45;;;25.25;;
51292;SDS011;37377;45.186;9.778;2023-04-01T03:55:47;37.67;;;26.45;;
51292;SDS011;37377;45.186;9.778;2023-04-01T03:58:14;31.13;;;26.17;;
51292;SDS011;37377;45.186;9.778;2023-04-01T04:00:41;34.05;;;25.67;;
51292;SDS011;37377;45.186;9.778;2023-04-01T04:03:09;31.65;;;25.92;;
51292;SDS011;37377;45.186;9.778;2023-04-01T04:05:36;35.95;;;25.08;;
51292;SDS011;37377;45.186;9.778;2023-04-01T04:08:04;34.30;;;25.98;;
51292;SDS011;37377;45.186;9.778;2023-04-01T04:10:31;34.83;;;26.25;;
51292;SDS011;37377;45.186;9.778;2023-04-01T04:12:58;31.60;;;25.77;;
51292;SDS011;37377;45.186;9.778;2023-04-01T04:15:28;36.03;;;27.80;;
51292;SDS011;37377;45.186;9.778;2023-04-01T04:17:54;34.28;;;26.33;;
51292;SDS011;37377;45.186;9.778;2023-04-01T04:20:21;40.75;;;27.15;;
51292;SDS011;37377;45.186;9.778;2023-04-01T04:22:48;35.05;;;26.50;;
51292;SDS011;37377;45.186;9.778;2023-04-01T04:25:15;34.08;;;25.45;;
51292;SDS011;37377;45.186;9.778;2023-04-01T04:27:42;32.47;;;25.60;;
51292;SDS011;37377;45.186;9.778;2023-04-01T04:30:11;34.45;;;25.85;;
51292;SDS011;37377;45.186;9.778;2023-04-01T04:32:39;34.33;;;24.90;;
51292;SDS011;37377;45.186;9.778;2023-04-01T04:35:07;36.05;;;25.70;;
51292;SDS011;37377;45.186;9.778;2023-04-01T04:37:34;34.08;;;26.15;;
51292;SDS011;37377;45.186;9.778;2023-04-01T04:40:01;35.65;;;26.23;;
51292;SDS011;37377;45.186;9.778;2023-04-01T04:42:29;34.63;;;26.10;;
51292;SDS011;37377;45.186;9.778;2023-04-01T04:45:02;35.03;;;26.13;;
51292;SDS011;37377;45.186;9.778;2023-04-01T04:47:29;34.05;;;25.67;;
51292;SDS011;37377;45.186;9.778;2023-04-01T04:49:56;41.35;;;27.25;;
51292;SDS011;37377;45.186;9.778;2023-04-01T04:52:23;36.55;;;26.52;;
51292;SDS011;37377;45.186;9.778;2023-04-01T04:54:50;33.03;;;26.15;;
51292;SDS011;37377;45.186;9.778;2023-04-01T04:57:17;35.03;;;26.98;;
51292;SDS011;37377;45.186;9.778;2023-04-01T04:59:51;36.70;;;27.70;;
51292;SDS011;37377;45.186;9.778;2023-04-01T05:02:32;38.42;;;27.88;;
51292;SDS011;37377;45.186;9.778;2023-04-01T05:04:59;37.00;;;28.17;;
51292;SDS011;37377;45.186;9.778;2023-04-01T05:07:27;39.25;;;28.50;;
51292;SDS011;37377;45.186;9.778;2023-04-01T05:09:54;43.38;;;29.15;;
51292;SDS011;37377;45.186;9.778;2023-04-01T05:12:21;51.95;;;30.38;;
51292;SDS011;37377;45.186;9.778;2023-04-01T05:14:59;41.03;;;28.80;;
51292;SDS011;37377;45.186;9.778;2023-04-01T05:17:27;39.67;;;27.88;;
51292;SDS011;37377;45.186;9.778;2023-04-01T05:19:54;40.72;;;28.75;;
51292;SDS011;37377;45.186;9.778;2023-04-01T05:22:22;39.22;;;27.83;;
51292;SDS011;37377;45.186;9.778;2023-04-01T05:24:49;40.80;;;28.27;;
51292;SDS011;37377;45.186;9.778;2023-04-01T05:27:16;32.03;;;26.75;;
51292;SDS011;37377;45.186;9.778;2023-04-01T05:29:43;35.20;;;28.30;;
51292;SDS011;37377;45.186;9.778;2023-04-01T05:32:31;44.95;;;29.10;;
51292;SDS011;37377;45.186;9.778;2023-04-01T05:34:59;39.08;;;27.63;;
51292;SDS011;37377;45.186;9.778;2023-04-01T05:37:26;37.70;;;26.55;;
51292;SDS011;37377;45.186;9.778;2023-04-01T05:39:53;35.78;;;25.05;;
51292;SDS011;37377;45.186;9.778;2023-04-01T05:42:20;32.65;;;23.27;;
51292;SDS011;37377;45.186;9.778;2023-04-01T05:44:47;35.33;;;21.08;;
51292;SDS011;37377;45.186;9.778;2023-04-01T05:47:32;32.20;;;18.17;;
51292;SDS011;37377;45.186;9.778;2023-04-01T05:49:59;26.83;;;17.10;;
51292;SDS011;37377;45.186;9.778;2023-04-01T05:52:26;23.23;;;16.80;;
51292;SDS011;37377;45.186;9.778;2023-04-01T05:54:54;18.23;;;15.10;;
51292;SDS011;37377;45.186;9.778;2023-04-01T05:57:21;23.08;;;14.35;;
51292;SDS011;37377;45.186;9.778;2023-04-01T05:59:49;18.13;;;13.48;;
51292;SDS011;37377;45.186;9.778;2023-04-01T06:02:16;24.67;;;13.60;;
51292;SDS011;37377;45.186;9.778;2023-04-01T06:04:43;24.17;;;13.23;;
51292;SDS011;37377;45.186;9.778;2023-04-01T06:07:14;20.25;;;12.98;;
51292;SDS011;37377;45.186;9.778;2023-04-01T06:09:42;16.30;;;11.73;;
51292;SDS011;37377;45.186;9.778;2023-04-01T06:30:43;13.38;;;9.38;;
51292;SDS011;37377;45.186;9.778;2023-04-01T06:44:35;20.02;;;8.38;;
51292;SDS011;37377;45.186;9.778;2023-04-01T06:53:32;8.98;;;5.90;;
51292;SDS011;37377;45.186;9.778;2023-04-01T06:56:22;16.80;;;6.28;;
51292;SDS011;37377;45.186;9.778;2023-04-01T06:59:09;8.60;;;6.22;;
51292;SDS011;37377;45.186;9.778;2023-04-01T07:01:39;13.43;;;6.03;;
51292;SDS011;37377;45.186;9.778;2023-04-01T07:09:09;10.18;;;5.80;;
51292;SDS011;37377;45.186;9.778;2023-04-01T07:12:00;11.18;;;6.30;;
51292;SDS011;37377;45.186;9.778;2023-04-01T07:14:58;15.68;;;5.35;;
51292;SDS011;37377;45.186;9.778;2023-04-01T07:17:30;13.75;;;5.85;;
51292;SDS011;37377;45.186;9.778;2023-04-01T07:22:41;13.73;;;5.30;;
51292;SDS011;37377;45.186;9.778;2023-04-01T07:25:33;15.57;;;5.30;;
51292;SDS011;37377;45.186;9.778;2023-04-01T07:28:26;9.32;;;4.57;;
51292;SDS011;37377;45.186;9.778;2023-04-01T07:31:05;8.20;;;3.92;;
51292;SDS011;37377;45.186;9.778;2023-04-01T07:41:08;10.40;;;3.67;;
51292;SDS011;37377;45.186;9.778;2023-04-01T07:43:44;3.53;;;3.05;;
51292;SDS011;37377;45.186;9.778;2023-04-01T07:46:38;8.48;;;3.35;;
51292;SDS011;37377;45.186;9.778;2023-04-01T07:57:15;4.70;;;2.50;;
51292;SDS011;37377;45.186;9.778;2023-04-01T08:05:24;7.43;;;1.92;;
51292;SDS011;37377;45.186;9.778;2023-04-01T08:20:01;10.02;;;1.95;;
51292;SDS011;37377;45.186;9.778;2023-04-01T08:22:40;7.90;;;1.58;;
51292;SDS011;37377;45.186;9.778;2023-04-01T08:25:31;5.88;;;1.70;;
51292;SDS011;37377;45.186;9.778;2023-04-01T08:28:44;4.57;;;1.40;;
51292;SDS011;37377;45.186;9.778;2023-04-01T08:30:59;6.15;;;1.50;;
51292;SDS011;37377;45.186;9.778;2023-04-01T08:33:29;5.57;;;1.20;;
51292;SDS011;37377;45.186;9.778;2023-04-01T08:36:17;5.00;;;1.52;;
51292;SDS011;37377;45.186;9.778;2023-04-01T08:38:57;5.28;;;1.00;;
51292;SDS011;37377;45.186;9.778;2023-04-01T08:41:32;2.03;;;1.10;;
51292;SDS011;37377;45.186;9.778;2023-04-01T08:49:46;8.98;;;1.50;;
51292;SDS011;37377;45.186;9.778;2023-04-01T09:06:49;8.23;;;0.70;;
51292;SDS011;37377;45.186;9.778;2023-04-01T09:28:20;6.63;;;1.10;;
51292;SDS011;37377;45.186;9.778;2023-04-01T09:39:37;3.95;;;0.85;;
51292;SDS011;37377;45.186;9.778;2023-04-01T09:42:15;7.28;;;0.85;;
51292;SDS011;37377;45.186;9.778;2023-04-01T09:45:00;6.82;;;0.88;;
51292;SDS011;37377;45.186;9.778;2023-04-01T09:47:34;9.57;;;0.82;;
51292;SDS011;37377;45.186;9.778;2023-04-01T09:58:13;18.13;;;1.27;;
51292;SDS011;37377;45.186;9.778;2023-04-01T10:24:37;2.67;;;1.00;;
51292;SDS011;37377;45.186;9.778;2023-04-01T10:30:22;2.20;;;1.05;;
51292;SDS011;37377;45.186;9.778;2023-04-01T10:46:17;1.70;;;0.68;;
51292;SDS011;37377;45.186;9.778;2023-04-01T11:20:43;8.82;;;4.72;;
51292;SDS011;37377;45.186;9.778;2023-04-01T11:45:48;5.03;;;0.70;;
51292;SDS011;37377;45.186;9.778;2023-04-01T11:51:09;3.30;;;0.80;;
51292;SDS011;37377;45.186;9.778;2023-04-01T11:56:11;2.92;;;0.50;;
51292;SDS011;37377;45.186;9.778;2023-04-01T12:01:30;0.30;;;0.20;;
51292;SDS011;37377;45.186;9.778;2023-04-01T12:04:13;0.60;;;0.30;;
51292;SDS011;37377;45.186;9.778;2023-04-01T12:09:21;0.70;;;0.35;;
51292;SDS011;37377;45.186;9.778;2023-04-01T12:37:27;0.30;;;0.30;;
51292;SDS011;37377;45.186;9.778;2023-04-01T12:45:27;2.08;;;0.40;;
51292;SDS011;37377;45.186;9.778;2023-04-01T12:48:16;1.05;;;0.40;;
51292;SDS011;37377;45.186;9.778;2023-04-01T12:55:45;0.43;;;0.20;;
51292;SDS011;37377;45.186;9.778;2023-04-01T13:01:16;2.53;;;0.35;;
51292;SDS011;37377;45.186;9.778;2023-04-01T13:14:15;2.65;;;0.40;;
51292;SDS011;37377;45.186;9.778;2023-04-01T13:17:01;5.85;;;0.50;;
51292;SDS011;37377;45.186;9.778;2023-04-01T13:19:35;1.80;;;0.40;;
51292;SDS011;37377;45.186;9.778;2023-04-01T13:22:06;8.98;;;0.40;;
51292;SDS011;37377;45.186;9.778;2023-04-01T13:29:33;4.30;;;0.60;;
51292;SDS011;37377;45.186;9.778;2023-04-01T13:34:34;0.20;;;0.20;;
51292;SDS011;37377;45.186;9.778;2023-04-01T13:44:37;0.50;;;0.30;;
51292;SDS011;37377;45.186;9.778;2023-04-01T13:52:44;1.13;;;1.00;;
51292;SDS011;37377;45.186;9.778;2023-04-01T13:55:21;1.27;;;1.17;;
51292;SDS011;37377;45.186;9.778;2023-04-01T14:11:10;3.03;;;0.80;;
51292;SDS011;37377;45.186;9.778;2023-04-01T14:18:45;1.23;;;0.80;;
51292;SDS011;37377;45.186;9.778;2023-04-01T14:23:59;0.90;;;0.75;;
51292;SDS011;37377;45.186;9.778;2023-04-01T14:32:08;3.05;;;2.80;;
51292;SDS011;37377;45.186;9.778;2023-04-01T14:34:59;5.00;;;0.70;;
51292;SDS011;37377;45.186;9.778;2023-04-01T14:42:55;9.48;;;0.80;;
51292;SDS011;37377;45.186;9.778;2023-04-01T14:47:59;6.32;;;1.20;;
51292;SDS011;37377;45.186;9.778;2023-04-01T14:50:47;3.08;;;1.00;;
51292;SDS011;37377;45.186;9.778;2023-04-01T14:53:26;5.85;;;1.20;;
51292;SDS011;37377;45.186;9.778;2023-04-01T14:55:54;7.55;;;0.75;;
51292;SDS011;37377;45.186;9.778;2023-04-01T14:58:23;4.38;;;1.73;;
51292;SDS011;37377;45.186;9.778;2023-04-01T15:03:34;2.08;;;0.77;;
51292;SDS011;37377;45.186;9.778;2023-04-01T15:14:29;0.90;;;0.73;;
51292;SDS011;37377;45.186;9.778;2023-04-01T15:19:42;2.80;;;0.80;;
51292;SDS011;37377;45.186;9.778;2023-04-01T15:32:22;7.07;;;0.60;;
51292;SDS011;37377;45.186;9.778;2023-04-01T15:37:22;1.50;;;0.52;;
51292;SDS011;37377;45.186;9.778;2023-04-01T15:40:00;7.72;;;1.40;;
51292;SDS011;37377;45.186;9.778;2023-04-01T15:58:20;5.57;;;1.10;;
51292;SDS011;37377;45.186;9.778;2023-04-01T16:23:50;1.73;;;0.40;;
51292;SDS011;37377;45.186;9.778;2023-04-01T16:31:31;8.07;;;1.65;;
51292;SDS011;37377;45.186;9.778;2023-04-01T16:34:20;3.97;;;0.77;;
51292;SDS011;37377;45.186;9.778;2023-04-01T16:36:50;8.20;;;1.08;;
51292;SDS011;37377;45.186;9.778;2023-04-01T16:39:37;10.98;;;0.73;;
51292;SDS011;37377;45.186;9.778;2023-04-01T16:44:59;4.78;;;0.75;;
51292;SDS011;37377;45.186;9.778;2023-04-01T16:47:31;4.03;;;1.20;;
51292;SDS011;37377;45.186;9.778;2023-04-01T16:50:22;3.22;;;0.60;;
51292;SDS011;37377;45.186;9.778;2023-04-01T16:58:09;2.03;;;1.10;;
51292;SDS011;37377;45.186;9.778;2023-04-01T17:00:37;3.35;;;2.05;;
51292;SDS011;37377;45.186;9.778;2023-04-01T17:08:06;8.65;;;2.60;;
51292;SDS011;37377;45.186;9.778;2023-04-01T17:23:25;9.73;;;1.27;;
51292;SDS011;37377;45.186;9.778;2023-04-01T17:25:57;7.80;;;1.55;;
51292;SDS011;37377;45.186;9.778;2023-04-01T17:28:33;4.50;;;1.08;;
51292;SDS011;37377;45.186;9.778;2023-04-01T17:31:07;10.00;;;2.05;;
51292;SDS011;37377;45.186;9.778;2023-04-01T17:41:11;9.68;;;1.13;;
51292;SDS011;37377;45.186;9.778;2023-04-01T17:43:45;8.63;;;1.40;;
51292;SDS011;37377;45.186;9.778;2023-04-01T17:46:50;27.88;;;5.38;;
51292;SDS011;37377;45.186;9.778;2023-04-01T17:54:22;24.83;;;1.95;;
51292;SDS011;37377;45.186;9.778;2023-04-01T17:59:28;25.83;;;1.60;;
51292;SDS011;37377;45.186;9.778;2023-04-01T18:07:13;32.53;;;2.63;;
51292;SDS011;37377;45.186;9.778;2023-04-01T18:12:44;26.40;;;2.38;;
51292;SDS011;37377;45.186;9.778;2023-04-01T18:20:31;39.47;;;2.47;;
51292;SDS011;37377;45.186;9.778;2023-04-01T18:25:42;40.15;;;2.00;;
51292;SDS011;37377;45.186;9.778;2023-04-01T18:28:21;32.22;;;1.77;;
51292;SDS011;37377;45.186;9.778;2023-04-01T18:38:40;34.45;;;2.13;;
51292;SDS011;37377;45.186;9.778;2023-04-01T18:46:17;14.63;;;1.92;;
51292;SDS011;37377;45.186;9.778;2023-04-01T18:58:54;31.73;;;3.83;;
51292;SDS011;37377;45.186;9.778;2023-04-01T19:01:36;40.03;;;3.55;;
51292;SDS011;37377;45.186;9.778;2023-04-01T19:06:48;25.05;;;2.30;;
51292;SDS011;37377;45.186;9.778;2023-04-01T19:14:24;24.20;;;1.80;;
51292;SDS011;37377;45.186;9.778;2023-04-01T19:19:50;22.10;;;4.28;;
51292;SDS011;37377;45.186;9.778;2023-04-01T19:22:34;8.95;;;2.88;;
51292;SDS011;37377;45.186;9.778;2023-04-01T19:25:14;40.75;;;2.42;;
51292;SDS011;37377;45.186;9.778;2023-04-01T19:27:46;20.88;;;3.30;;
51292;SDS011;37377;45.186;9.778;2023-04-01T19:30:27;14.73;;;1.92;;
51292;SDS011;37377;45.186;9.778;2023-04-01T19:51:34;29.50;;;2.83;;
51292;SDS011;37377;45.186;9.778;2023-04-01T19:56:39;28.83;;;2.42;;
51292;SDS011;37377;45.186;9.778;2023-04-01T20:01:58;28.77;;;4.22;;
51292;SDS011;37377;45.186;9.778;2023-04-01T20:04:31;24.63;;;2.65;;
51292;SDS011;37377;45.186;9.778;2023-04-01T20:14:49;13.30;;;3.25;;
51292;SDS011;37377;45.186;9.778;2023-04-01T20:28:14;18.42;;;3.55;;
51292;SDS011;37377;45.186;9.778;2023-04-01T20:33:18;21.15;;;5.72;;
51292;SDS011;37377;45.186;9.778;2023-04-01T20:40:51;8.52;;;2.45;;
51292;SDS011;37377;45.186;9.778;2023-04-01T20:48:40;5.72;;;1.80;;
51292;SDS011;37377;45.186;9.778;2023-04-01T20:51:24;5.50;;;1.80;;
51292;SDS011;37377;45.186;9.778;2023-04-01T20:56:36;4.43;;;1.50;;
51292;SDS011;37377;45.186;9.778;2023-04-01T21:07:02;8.68;;;2.00;;
51292;SDS011;37377;45.186;9.778;2023-04-01T21:09:52;8.02;;;2.20;;
51292;SDS011;37377;45.186;9.778;2023-04-01T21:17:42;5.63;;;1.80;;
51292;SDS011;37377;45.186;9.778;2023-04-01T21:20:32;10.77;;;1.88;;
51292;SDS011;37377;45.186;9.778;2023-04-01T21:28:29;13.57;;;2.78;;
51292;SDS011;37377;45.186;9.778;2023-04-01T21:33:40;6.88;;;1.88;;
51292;SDS011;37377;45.186;9.778;2023-04-01T21:36:24;10.05;;;2.63;;
51292;SDS011;37377;45.186;9.778;2023-04-01T22:04:56;16.85;;;5.78;;
51292;SDS011;37377;45.186;9.778;2023-04-01T22:07:35;4.32;;;2.72;;
51292;SDS011;37377;45.186;9.778;2023-04-01T22:12:49;13.25;;;2.80;;
51292;SDS011;37377;45.186;9.778;2023-04-01T22:21:09;8.77;;;3.10;;
51292;SDS011;37377;45.186;9.778;2023-04-01T22:27:10;15.77;;;2.20;;
51292;SDS011;37377;45.186;9.778;2023-04-01T22:29:47;4.57;;;2.30;;
51292;SDS011;37377;45.186;9.778;2023-04-01T22:31:55;8.38;;;2.53;;
51292;SDS011;37377;45.186;9.778;2023-04-01T22:34:31;5.80;;;1.92;;
51292;SDS011;37377;45.186;9.778;2023-04-01T22:39:53;3.28;;;2.08;;
51292;SDS011;37377;45.186;9.778;2023-04-01T22:45:03;5.13;;;2.05;;
51292;SDS011;37377;45.186;9.778;2023-04-01T22:50:05;6.47;;;2.92;;
51292;SDS011;37377;45.186;9.778;2023-04-01T22:52:38;9.55;;;2.10;;
51292;SDS011;37377;45.186;9.778;2023-04-01T22:55:25;5.63;;;2.08;;
51292;SDS011;37377;45.186;9.778;2023-04-01T22:57:58;4.10;;;1.92;;
51292;SDS011;37377;45.186;9.778;2023-04-01T23:00:47;4.60;;;2.40;;
51292;SDS011;37377;45.186;9.778;2023-04-01T23:05:45;8.38;;;3.00;;
51292;SDS011;37377;45.186;9.778;2023-04-01T23:11:10;3.03;;;1.90;;
51292;SDS011;37377;45.186;9.778;2023-04-01T23:13:47;6.35;;;2.85;;
51292;SDS011;37377;45.186;9.778;2023-04-01T23:16:21;6.55;;;2.50;;
51292;SDS011;37377;45.186;9.778;2023-04-01T23:19:06;5.43;;;2.10;;
51292;SDS011;37377;45.186;9.778;2023-04-01T23:21:45;15.95;;;2.70;;
51292;SDS011;37377;45.186;9.778;2023-04-01T23:24:21;11.73;;;3.40;;
51292;SDS011;37377;45.186;9.778;2023-04-01T23:26:55;7.35;;;2.50;;
51292;SDS011;37377;45.186;9.778;2023-04-01T23:29:23;10.18;;;2.63;;
51292;SDS011;37377;45.186;9.778;2023-04-01T23:32:02;5.13;;;2.20;;
51292;SDS011;37377;45.186;9.778;2023-04-01T23:34:35;5.68;;;2.15;;
51292;SDS011;37377;45.186;9.778;2023-04-01T23:37:12;12.13;;;2.30;;
51292;SDS011;37377;45.186;9.778;2023-04-01T23:39:43;2.80;;;1.92;;
51292;SDS011;37377;45.186;9.778;2023-04-01T23:42:18;8.50;;;1.98;;
51292;SDS011;37377;45.186;9.778;2023-04-01T23:44:49;4.82;;;2.30;;
51292;SDS011;37377;45.186;9.778;2023-04-01T23:49:55;3.40;;;2.30;;
51292;SDS011;37377;45.186;9.778;2023-04-01T23:52:27;5.25;;;2.20;;
51292;SDS011;37377;45.186;9.778;2023-04-01T23:54:58;13.05;;;2.28;;
51292;SDS011;37377;45.186;9.778;2023-04-01T23:57:29;10.93;;;2.70;;
